Time;durP1;ratioP1;P1;durP2;ratioP2;P2;SDS_P1;SDS_P2;PMS_P1;PMS_P2;Temp;Humidity;BMP_temperature;BMP_pressure;BME280_temperature;BME280_humidity;BME280_pressure;Samples;Min_cycle;Max_cycle;Signal;HPM_P1;HPM_P2
2024/03/10 00:02:00;;;;;;;5.65;3.30;;;;;;;;;;4958118;28;20047;-84
2024/03/10 00:04:27;;;;;;;5.25;3.70;;;;;;;;;;4974137;28;20081;-86
2024/03/10 00:06:53;;;;;;;7.75;3.28;;;;;;;;;;4973986;28;20478;-85
2024/03/10 00:09:20;;;;;;;4.68;3.33;;;;;;;;;;4975344;28;20082;-86
2024/03/10 00:11:47;;;;;;;5.68;3.67;;;;;;;;;;4957263;28;20133;-85
2024/03/10 00:14:14;;;;;;;5.72;3.47;;;;;;;;;;4976569;28;20046;-85
2024/03/10 00:16:40;;;;;;;8.23;3.65;;;;;;;;;;4973406;28;20051;-85
2024/03/10 00:19:08;;;;;;;5.88;4.07;;;;;;;;;;4973713;28;20051;-86
2024/03/10 00:21:35;;;;;;;4.35;3.30;;;;;;;;;;4957533;28;20059;-86
2024/03/10 00:24:02;;;;;;;6.93;3.53;;;;;;;;;;4973217;28;20073;-85
2024/03/10 00:26:28;;;;;;;4.68;3.10;;;;;;;;;;4969526;28;20523;-86
2024/03/10 00:28:55;;;;;;;3.70;2.95;;;;;;;;;;4974636;28;20058;-86
2024/03/10 00:31:21;;;;;;;5.25;3.75;;;;;;;;;;4974976;28;20062;-86
2024/03/10 00:33:48;;;;;;;5.22;3.03;;;;;;;;;;4977021;28;20571;-86
2024/03/10 00:36:17;;;;;;;4.72;3.28;;;;;;;;;;4975569;28;20118;-84
2024/03/10 00:38:44;;;;;;;4.70;3.63;;;;;;;;;;4975752;28;20054;-84
2024/03/10 00:41:10;;;;;;;4.45;3.22;;;;;;;;;;4963193;28;20059;-86
2024/03/10 00:43:37;;;;;;;3.50;2.80;;;;;;;;;;4974008;28;20058;-85
2024/03/10 00:46:04;;;;;;;3.58;2.25;;;;;;;;;;4979179;28;20078;-84
2024/03/10 00:48:30;;;;;;;5.28;3.53;;;;;;;;;;4979323;28;20097;-85
2024/03/10 00:50:57;;;;;;;4.68;3.35;;;;;;;;;;4960237;28;20129;-85
2024/03/10 00:53:23;;;;;;;7.90;3.47;;;;;;;;;;4960515;28;20113;-84
2024/03/10 00:55:50;;;;;;;6.35;3.53;;;;;;;;;;4963226;28;20117;-83
2024/03/10 00:58:17;;;;;;;5.97;3.25;;;;;;;;;;4981715;28;20067;-84
2024/03/10 01:00:44;;;;;;;4.65;3.55;;;;;;;;;;4965280;28;20066;-83
2024/03/10 01:03:12;;;;;;;6.38;3.20;;;;;;;;;;4979465;28;20082;-85
2024/03/10 01:05:39;;;;;;;4.93;3.20;;;;;;;;;;4960181;28;20082;-84
2024/03/10 01:08:05;;;;;;;5.70;3.65;;;;;;;;;;4981308;28;20081;-82
2024/03/10 01:10:32;;;;;;;6.28;3.75;;;;;;;;;;4981396;28;20077;-83
2024/03/10 01:12:59;;;;;;;4.55;2.97;;;;;;;;;;4965117;28;20138;-84
2024/03/10 01:15:25;;;;;;;5.25;3.35;;;;;;;;;;4964583;28;20073;-84
2024/03/10 01:17:53;;;;;;;4.03;3.40;;;;;;;;;;4964808;28;20066;-83
2024/03/10 01:20:20;;;;;;;4.30;3.03;;;;;;;;;;4971795;28;20035;-84
2024/03/10 01:22:47;;;;;;;3.72;3.13;;;;;;;;;;4992399;28;20105;-83
2024/03/10 01:25:14;;;;;;;4.07;2.95;;;;;;;;;;4959731;28;20055;-84
2024/03/10 01:27:42;;;;;;;3.55;2.75;;;;;;;;;;4957426;28;20046;-85
2024/03/10 01:30:10;;;;;;;3.80;3.10;;;;;;;;;;4974302;28;20055;-85
2024/03/10 01:32:36;;;;;;;4.05;2.75;;;;;;;;;;4973275;28;20082;-85
2024/03/10 01:35:05;;;;;;;4.78;3.10;;;;;;;;;;4957652;28;20057;-85
2024/03/10 01:37:33;;;;;;;4.60;3.25;;;;;;;;;;4957779;28;20507;-85
2024/03/10 01:40:04;;;;;;;5.05;3.45;;;;;;;;;;4973856;28;20078;-85
2024/03/10 01:42:32;;;;;;;5.15;3.22;;;;;;;;;;4958293;28;20058;-85
2024/03/10 01:44:59;;;;;;;5.22;2.95;;;;;;;;;;4980902;28;20524;-85
2024/03/10 01:47:26;;;;;;;3.85;2.60;;;;;;;;;;4956787;28;20062;-85
2024/03/10 01:49:53;;;;;;;6.63;3.45;;;;;;;;;;4972982;28;20058;-85
2024/03/10 01:52:20;;;;;;;3.78;3.15;;;;;;;;;;4973070;28;20072;-84
2024/03/10 01:54:46;;;;;;;3.00;2.47;;;;;;;;;;4956911;28;20054;-84
2024/03/10 01:57:14;;;;;;;4.72;2.42;;;;;;;;;;4957042;28;20086;-84
2024/03/10 01:59:40;;;;;;;3.63;2.65;;;;;;;;;;4958129;28;20060;-84
2024/03/10 02:02:07;;;;;;;2.88;2.38;;;;;;;;;;4982432;28;20149;-83
2024/03/10 02:04:34;;;;;;;3.65;2.40;;;;;;;;;;4970058;28;20062;-87
2024/03/10 02:07:00;;;;;;;4.85;3.17;;;;;;;;;;4971837;28;20130;-86
2024/03/10 02:09:27;;;;;;;3.42;2.13;;;;;;;;;;4957313;28;20078;-85
2024/03/10 02:11:54;;;;;;;4.05;3.05;;;;;;;;;;4973389;28;20169;-86
2024/03/10 02:14:21;;;;;;;3.67;2.75;;;;;;;;;;4957076;28;20476;-85
2024/03/10 02:16:49;;;;;;;3.80;2.45;;;;;;;;;;4972341;28;20062;-85
2024/03/10 02:19:19;;;;;;;3.35;2.38;;;;;;;;;;4956214;28;20055;-86
2024/03/10 02:21:45;;;;;;;3.42;2.33;;;;;;;;;;4972814;28;20077;-85
2024/03/10 02:24:22;;;;;;;4.25;2.83;;;;;;;;;;4956244;28;20070;-86
2024/03/10 02:26:48;;;;;;;3.60;2.53;;;;;;;;;;4957247;28;20054;-84
2024/03/10 02:29:15;;;;;;;3.42;2.55;;;;;;;;;;4963873;28;20082;-84
2024/03/10 02:48:15;;;;;;;3.28;2.22;;;;;;;;;;4977521;28;20046;-84
2024/03/10 02:50:42;;;;;;;5.88;3.10;;;;;;;;;;4976360;28;20051;-84
2024/03/10 02:53:10;;;;;;;3.88;2.30;;;;;;;;;;4996510;28;20137;-84
2024/03/10 02:55:36;;;;;;;5.38;2.53;;;;;;;;;;4996734;28;20050;-83
2024/03/10 02:58:04;;;;;;;3.78;2.50;;;;;;;;;;4978626;28;20106;-83
2024/03/10 03:00:31;;;;;;;4.22;2.47;;;;;;;;;;4993102;28;20078;-84
2024/03/10 03:02:58;;;;;;;3.95;2.53;;;;;;;;;;4998567;28;20110;-84
2024/03/10 03:05:26;;;;;;;3.08;2.38;;;;;;;;;;4999538;28;20114;-83
2024/03/10 03:07:57;;;;;;;4.15;2.47;;;;;;;;;;5013448;28;20038;-82
2024/03/10 03:10:24;;;;;;;3.20;2.00;;;;;;;;;;5014643;28;20093;-83
2024/03/10 03:12:53;;;;;;;3.63;2.40;;;;;;;;;;5014889;28;20080;-83
2024/03/10 03:15:19;;;;;;;3.60;2.40;;;;;;;;;;5016031;28;20058;-83
2024/03/10 03:17:46;;;;;;;4.00;2.35;;;;;;;;;;5015949;28;20054;-83
2024/03/10 03:20:15;;;;;;;3.03;1.98;;;;;;;;;;5015494;28;20077;-82
2024/03/10 03:22:43;;;;;;;4.20;2.40;;;;;;;;;;5015412;28;20162;-83
2024/03/10 03:25:13;;;;;;;4.05;2.10;;;;;;;;;;5014831;28;20057;-83
2024/03/10 03:27:41;;;;;;;3.75;2.58;;;;;;;;;;5007419;28;20073;-83
2024/03/10 03:30:08;;;;;;;3.08;2.25;;;;;;;;;;4976339;28;20129;-83
2024/03/10 03:32:34;;;;;;;4.63;2.38;;;;;;;;;;5016987;28;20034;-83
2024/03/10 03:35:02;;;;;;;3.03;1.90;;;;;;;;;;5020493;28;20061;-82
2024/03/10 03:37:28;;;;;;;2.92;2.03;;;;;;;;;;5002536;28;20065;-82
2024/03/10 03:39:55;;;;;;;4.30;2.42;;;;;;;;;;4983619;28;20058;-82
2024/03/10 03:42:22;;;;;;;2.65;2.22;;;;;;;;;;4994563;28;20055;-83
2024/03/10 03:44:51;;;;;;;3.55;2.38;;;;;;;;;;4993712;28;20060;-84
2024/03/10 03:47:18;;;;;;;2.22;2.00;;;;;;;;;;4993864;28;20058;-85
2024/03/10 03:49:45;;;;;;;4.03;2.28;;;;;;;;;;4983774;28;20166;-86
2024/03/10 03:52:12;;;;;;;3.45;2.17;;;;;;;;;;4994093;28;20082;-85
2024/03/10 03:54:42;;;;;;;4.03;2.13;;;;;;;;;;4994185;28;20141;-84
2024/03/10 03:57:09;;;;;;;2.53;2.20;;;;;;;;;;4994329;28;20141;-84
2024/03/10 03:59:37;;;;;;;6.00;2.58;;;;;;;;;;4988687;28;20585;-84
2024/03/10 04:02:04;;;;;;;2.60;2.17;;;;;;;;;;4993235;28;20054;-85
2024/03/10 04:04:31;;;;;;;3.03;2.03;;;;;;;;;;4993967;28;20109;-85
2024/03/10 04:06:58;;;;;;;3.45;2.47;;;;;;;;;;4997970;28;20050;-83
2024/03/10 04:09:24;;;;;;;3.45;2.28;;;;;;;;;;4988482;28;20129;-86
2024/03/10 04:11:51;;;;;;;2.85;2.20;;;;;;;;;;4992203;28;20165;-85
2024/03/10 04:14:18;;;;;;;3.85;2.30;;;;;;;;;;4993641;28;20046;-84
2024/03/10 04:16:45;;;;;;;3.80;2.63;;;;;;;;;;4995760;28;20071;-85
2024/03/10 04:19:11;;;;;;;3.53;2.10;;;;;;;;;;4992275;28;20500;-86
2024/03/10 04:21:38;;;;;;;2.92;1.90;;;;;;;;;;4994466;28;20054;-85
2024/03/10 04:24:07;;;;;;;3.63;2.13;;;;;;;;;;4994425;28;20114;-85
2024/03/10 04:26:34;;;;;;;3.05;2.00;;;;;;;;;;4994651;28;20512;-86
2024/03/10 04:29:00;;;;;;;3.75;2.30;;;;;;;;;;4984399;28;20142;-85
2024/03/10 04:31:28;;;;;;;3.15;2.03;;;;;;;;;;4991086;28;20053;-86
2024/03/10 04:33:56;;;;;;;2.55;1.77;;;;;;;;;;4991220;28;20054;-86
2024/03/10 04:36:22;;;;;;;3.72;2.10;;;;;;;;;;4993042;28;20161;-85
2024/03/10 04:38:49;;;;;;;3.58;2.15;;;;;;;;;;4985630;28;20420;-85
2024/03/10 04:41:15;;;;;;;2.65;1.83;;;;;;;;;;4992564;28;20193;-85
2024/03/10 04:43:44;;;;;;;2.88;2.00;;;;;;;;;;4992357;28;20108;-85
2024/03/10 04:46:10;;;;;;;4.50;2.15;;;;;;;;;;4992389;28;20054;-86
2024/03/10 04:48:37;;;;;;;3.75;2.25;;;;;;;;;;4986831;28;20134;-85
2024/03/10 04:51:06;;;;;;;2.97;2.00;;;;;;;;;;4981399;28;20055;-83
2024/03/10 04:53:35;;;;;;;2.83;2.03;;;;;;;;;;4973377;28;20078;-85
2024/03/10 04:56:01;;;;;;;2.25;1.73;;;;;;;;;;4976408;28;20058;-85
2024/03/10 04:58:28;;;;;;;2.88;1.80;;;;;;;;;;4956857;28;20047;-85
2024/03/10 05:00:55;;;;;;;2.20;1.60;;;;;;;;;;4971667;28;20469;-85
2024/03/10 05:03:22;;;;;;;2.20;1.67;;;;;;;;;;4975224;28;20521;-84
2024/03/10 05:05:48;;;;;;;2.13;1.83;;;;;;;;;;4959110;28;20050;-84
2024/03/10 05:08:15;;;;;;;1.75;1.65;;;;;;;;;;4957848;28;20051;-85
2024/03/10 05:10:42;;;;;;;2.28;1.65;;;;;;;;;;4971856;28;20205;-85
2024/03/10 05:13:09;;;;;;;3.70;1.85;;;;;;;;;;4956441;28;20051;-86
2024/03/10 05:15:36;;;;;;;2.53;1.85;;;;;;;;;;4988263;28;20161;-86
2024/03/10 05:18:03;;;;;;;2.95;1.65;;;;;;;;;;4972047;28;20133;-86
2024/03/10 05:20:29;;;;;;;4.43;1.90;;;;;;;;;;4972196;28;20058;-86
2024/03/10 05:22:56;;;;;;;2.30;1.52;;;;;;;;;;4979870;28;20062;-85
2024/03/10 05:25:23;;;;;;;2.65;1.63;;;;;;;;;;4971897;28;20067;-86
2024/03/10 05:27:51;;;;;;;1.95;1.50;;;;;;;;;;4955638;28;20474;-87
2024/03/10 05:30:18;;;;;;;3.42;1.58;;;;;;;;;;4956342;28;20086;-85
2024/03/10 05:32:45;;;;;;;2.00;1.42;;;;;;;;;;4971518;28;20059;-86
2024/03/10 05:35:13;;;;;;;3.20;1.73;;;;;;;;;;4971710;28;20051;-86
2024/03/10 05:37:41;;;;;;;1.83;1.73;;;;;;;;;;4980143;28;20401;-85
2024/03/10 05:40:11;;;;;;;1.70;1.52;;;;;;;;;;4985786;28;20050;-82
2024/03/10 05:42:37;;;;;;;2.30;1.83;;;;;;;;;;4993702;28;20063;-82
2024/03/10 05:45:06;;;;;;;2.22;1.63;;;;;;;;;;4986581;28;20055;-83
2024/03/10 05:47:32;;;;;;;2.97;1.75;;;;;;;;;;4959173;28;20074;-84
2024/03/10 05:49:59;;;;;;;2.30;1.60;;;;;;;;;;4972955;28;20509;-85
2024/03/10 05:52:26;;;;;;;1.83;1.35;;;;;;;;;;4961264;28;20105;-83
2024/03/10 05:54:53;;;;;;;1.73;1.25;;;;;;;;;;4969914;28;20061;-84
2024/03/10 05:57:20;;;;;;;1.83;1.45;;;;;;;;;;5002064;28;20051;-84
2024/03/10 05:59:47;;;;;;;2.10;1.50;;;;;;;;;;4986372;28;20064;-83
2024/03/10 06:02:14;;;;;;;2.72;2.05;;;;;;;;;;4976272;28;20050;-85
2024/03/10 06:04:45;;;;;;;2.47;1.70;;;;;;;;;;4971935;28;20556;-86
2024/03/10 06:07:11;;;;;;;2.08;1.45;;;;;;;;;;4973570;28;20051;-83
2024/03/10 06:09:38;;;;;;;1.92;1.50;;;;;;;;;;4979133;28;20134;-83
2024/03/10 06:12:06;;;;;;;2.83;1.58;;;;;;;;;;4960585;28;20051;-83
2024/03/10 06:14:33;;;;;;;2.67;1.50;;;;;;;;;;4978403;28;20066;-82
2024/03/10 06:17:00;;;;;;;2.35;1.77;;;;;;;;;;4963215;28;20051;-84
2024/03/10 06:27:43;;;;;;;3.47;1.70;;;;;;;;;;4992601;28;20054;-83
2024/03/10 06:30:14;;;;;;;1.98;1.70;;;;;;;;;;4990729;28;20059;-83
2024/03/10 06:32:41;;;;;;;3.03;1.40;;;;;;;;;;4979829;28;20109;-84
2024/03/10 06:35:08;;;;;;;2.53;1.60;;;;;;;;;;4979420;28;20054;-85
2024/03/10 06:37:35;;;;;;;2.05;1.85;;;;;;;;;;4947808;28;20051;-85
2024/03/10 06:40:03;;;;;;;1.98;1.42;;;;;;;;;;4958540;28;20073;-85
2024/03/10 06:42:30;;;;;;;4.45;1.70;;;;;;;;;;4959370;28;20050;-85
2024/03/10 06:44:57;;;;;;;4.50;1.40;;;;;;;;;;4975258;28;20062;-85
2024/03/10 06:47:26;;;;;;;2.60;1.63;;;;;;;;;;4956189;28;20062;-87
2024/03/10 06:49:53;;;;;;;4.07;1.73;;;;;;;;;;4952301;28;20476;-87
2024/03/10 06:52:19;;;;;;;3.67;1.77;;;;;;;;;;4963323;28;20521;-86
2024/03/10 06:54:46;;;;;;;2.55;1.90;;;;;;;;;;4972833;28;20507;-87
2024/03/10 06:57:12;;;;;;;2.20;1.60;;;;;;;;;;4983759;28;20569;-87
2024/03/10 06:59:41;;;;;;;5.03;2.00;;;;;;;;;;4959972;28;20061;-86
2024/03/10 07:02:11;;;;;;;1.70;1.60;;;;;;;;;;4959599;28;20082;-85
2024/03/10 07:04:40;;;;;;;3.95;1.67;;;;;;;;;;4975517;28;20133;-86
2024/03/10 07:07:08;;;;;;;2.53;1.63;;;;;;;;;;4959169;28;20512;-88
2024/03/10 07:09:35;;;;;;;3.10;1.98;;;;;;;;;;4972972;28;20098;-87
2024/03/10 07:12:05;;;;;;;2.38;1.83;;;;;;;;;;4958682;28;20090;-87
2024/03/10 07:14:32;;;;;;;2.75;1.80;;;;;;;;;;4976154;28;20059;-87
2024/03/10 07:17:01;;;;;;;2.20;1.70;;;;;;;;;;4959501;28;20055;-87
2024/03/10 07:19:28;;;;;;;2.17;1.65;;;;;;;;;;4959343;28;20437;-86
2024/03/10 07:21:54;;;;;;;2.42;1.77;;;;;;;;;;4974424;28;20054;-87
2024/03/10 07:24:21;;;;;;;3.05;1.50;;;;;;;;;;4974987;28;20442;-86
2024/03/10 07:26:48;;;;;;;2.80;1.85;;;;;;;;;;4974328;28;20055;-85
2024/03/10 07:29:15;;;;;;;3.70;1.90;;;;;;;;;;4974381;28;20521;-87
2024/03/10 07:31:42;;;;;;;2.17;1.45;;;;;;;;;;4959644;28;20066;-86
2024/03/10 07:34:08;;;;;;;2.38;1.88;;;;;;;;;;4979988;28;20496;-80
2024/03/10 07:36:35;;;;;;;2.88;1.83;;;;;;;;;;4980150;28;20093;-78
2024/03/10 07:39:06;;;;;;;4.32;1.90;;;;;;;;;;4982600;28;20552;-78
2024/03/10 07:41:33;;;;;;;5.30;3.40;;;;;;;;;;4965391;28;20051;-78
2024/03/10 07:44:00;;;;;;;13.35;6.32;;;;;;;;;;4967064;28;20420;-78
2024/03/10 07:46:27;;;;;;;8.77;6.28;;;;;;;;;;4980158;28;20050;-78
2024/03/10 07:48:55;;;;;;;5.00;2.17;;;;;;;;;;4965344;28;20082;-78
2024/03/10 07:51:23;;;;;;;2.75;1.73;;;;;;;;;;4974976;28;20101;-77
2024/03/10 07:53:50;;;;;;;2.55;1.77;;;;;;;;;;4985489;28;20098;-76
2024/03/10 07:56:17;;;;;;;2.78;1.70;;;;;;;;;;4960183;28;20475;-75
2024/03/10 07:58:44;;;;;;;2.80;1.85;;;;;;;;;;4976016;28;20470;-77
2024/03/10 08:01:11;;;;;;;7.47;1.80;;;;;;;;;;4974877;28;20086;-76
2024/03/10 08:03:38;;;;;;;2.03;1.60;;;;;;;;;;4974828;28;20063;-74
2024/03/10 08:06:07;;;;;;;3.17;1.92;;;;;;;;;;4975009;28;20598;-74
2024/03/10 08:08:33;;;;;;;1.98;1.77;;;;;;;;;;4965808;28;20051;-75
2024/03/10 08:11:00;;;;;;;2.35;1.65;;;;;;;;;;4974140;28;20051;-74
2024/03/10 08:13:27;;;;;;;2.25;1.75;;;;;;;;;;4973282;28;20059;-75
2024/03/10 08:15:54;;;;;;;3.42;1.60;;;;;;;;;;4973156;28;20050;-75
2024/03/10 08:18:20;;;;;;;2.13;1.70;;;;;;;;;;4965759;28;20501;-75
2024/03/10 08:20:47;;;;;;;2.33;1.50;;;;;;;;;;4972571;28;20059;-74
2024/03/10 08:23:14;;;;;;;2.80;1.58;;;;;;;;;;4973376;28;20417;-75
2024/03/10 08:25:42;;;;;;;2.88;2.05;;;;;;;;;;4957913;28;20061;-75
2024/03/10 08:28:09;;;;;;;2.30;1.85;;;;;;;;;;4965173;28;20097;-75
2024/03/10 08:30:35;;;;;;;1.83;1.65;;;;;;;;;;4974464;28;20489;-75
2024/03/10 08:33:04;;;;;;;1.85;1.52;;;;;;;;;;4974742;28;20146;-75
2024/03/10 08:35:31;;;;;;;3.38;1.45;;;;;;;;;;4958615;28;20054;-75
2024/03/10 08:37:59;;;;;;;2.15;1.45;;;;;;;;;;4967199;28;20063;-75
2024/03/10 08:40:26;;;;;;;1.92;1.48;;;;;;;;;;4963623;28;20729;-76
2024/03/10 08:42:53;;;;;;;2.92;1.70;;;;;;;;;;4975161;28;20141;-77
2024/03/10 08:45:19;;;;;;;2.10;1.58;;;;;;;;;;4977163;28;20138;-76
2024/03/10 08:47:49;;;;;;;1.63;1.50;;;;;;;;;;4970469;28;20104;-76
2024/03/10 08:50:16;;;;;;;2.97;2.08;;;;;;;;;;4976660;28;20082;-79
2024/03/10 08:52:45;;;;;;;2.03;1.60;;;;;;;;;;4976247;28;20090;-82
2024/03/10 08:55:14;;;;;;;1.50;1.08;;;;;;;;;;4959370;28;20118;-81
2024/03/10 08:57:41;;;;;;;3.70;1.75;;;;;;;;;;4962106;28;20654;-83
2024/03/10 09:00:10;;;;;;;4.20;2.33;;;;;;;;;;4982122;28;20063;-81
2024/03/10 09:02:38;;;;;;;3.55;2.13;;;;;;;;;;4959011;28;20117;-87
2024/03/10 09:05:07;;;;;;;3.35;2.00;;;;;;;;;;4961527;28;20065;-80
2024/03/10 09:07:34;;;;;;;2.17;1.90;;;;;;;;;;4981155;28;20138;-81
2024/03/10 09:10:02;;;;;;;4.38;3.00;;;;;;;;;;4962036;28;20085;-80
2024/03/10 09:12:28;;;;;;;3.65;2.70;;;;;;;;;;4994794;28;20489;-79
2024/03/10 09:14:57;;;;;;;4.43;2.00;;;;;;;;;;4977381;28;20129;-83
2024/03/10 09:17:24;;;;;;;2.20;1.85;;;;;;;;;;4991585;28;20086;-85
2024/03/10 09:19:51;;;;;;;1.85;1.70;;;;;;;;;;4973743;28;20094;-84
2024/03/10 09:22:19;;;;;;;2.67;1.80;;;;;;;;;;4971207;28;20070;-82
2024/03/10 09:24:49;;;;;;;2.10;1.60;;;;;;;;;;4972876;28;20054;-83
2024/03/10 09:27:18;;;;;;;2.00;1.50;;;;;;;;;;4958589;28;20303;-84
2024/03/10 09:29:46;;;;;;;2.40;1.70;;;;;;;;;;4958959;28;20151;-84
2024/03/10 09:32:19;;;;;;;2.20;1.48;;;;;;;;;;4964201;28;20587;-77
2024/03/10 09:34:47;;;;;;;;;;;;;;;;;;4969923;28;20414;-79
2024/03/10 09:37:14;;;;;;;1.45;1.13;;;;;;;;;;4978486;28;19929;-82
2024/03/10 09:39:40;;;;;;;2.63;1.70;;;;;;;;;;4972414;28;20133;-77
2024/03/10 09:42:07;;;;;;;2.05;1.73;;;;;;;;;;4967573;28;20062;-81
2024/03/10 09:44:33;;;;;;;2.08;1.48;;;;;;;;;;4971381;28;20084;-79
2024/03/10 09:47:01;;;;;;;2.80;1.65;;;;;;;;;;4975301;28;20051;-78
2024/03/10 09:49:30;;;;;;;2.15;1.92;;;;;;;;;;4981878;28;20065;-80
2024/03/10 09:51:58;;;;;;;2.90;1.65;;;;;;;;;;4925354;28;20105;-78
2024/03/10 09:54:25;;;;;;;1.77;1.30;;;;;;;;;;4962515;28;20051;-75
2024/03/10 09:56:52;;;;;;;5.07;2.05;;;;;;;;;;4959883;28;20051;-75
2024/03/10 09:59:22;;;;;;;2.03;1.35;;;;;;;;;;4950205;28;20051;-81
2024/03/10 10:01:49;;;;;;;1.83;1.63;;;;;;;;;;4966915;28;20051;-79
2024/03/10 10:04:16;;;;;;;2.65;1.67;;;;;;;;;;4971664;28;20595;-85
2024/03/10 10:06:45;;;;;;;3.08;1.42;;;;;;;;;;4985222;28;20078;-79
2024/03/10 10:09:13;;;;;;;1.42;1.30;;;;;;;;;;4970286;28;20055;-78
2024/03/10 10:11:40;;;;;;;2.00;1.33;;;;;;;;;;4966902;28;20062;-77
2024/03/10 10:14:09;;;;;;;1.58;1.27;;;;;;;;;;4976959;28;20086;-77
2024/03/10 10:16:36;;;;;;;2.80;2.00;;;;;;;;;;4960354;28;20091;-79
2024/03/10 10:19:15;;;;;;;3.17;2.33;;;;;;;;;;4974287;28;20054;-79
2024/03/10 10:21:43;;;;;;;4.68;2.08;;;;;;;;;;4973341;28;20054;-76
2024/03/10 10:24:10;;;;;;;1.92;1.63;;;;;;;;;;4974521;28;20081;-76
2024/03/10 10:26:37;;;;;;;1.80;1.25;;;;;;;;;;4974284;28;20054;-76
2024/03/10 10:29:07;;;;;;;1.88;1.15;;;;;;;;;;4968183;28;20061;-76
2024/03/10 10:31:35;;;;;;;1.85;1.27;;;;;;;;;;4973164;28;20090;-76
2024/03/10 10:34:02;;;;;;;2.13;1.30;;;;;;;;;;4973749;28;20051;-75
2024/03/10 10:36:28;;;;;;;1.67;1.45;;;;;;;;;;4975389;28;20082;-78
2024/03/10 10:38:55;;;;;;;1.85;1.30;;;;;;;;;;4974635;28;20089;-76
2024/03/10 10:41:22;;;;;;;1.83;1.10;;;;;;;;;;4975599;28;20058;-79
2024/03/10 10:43:49;;;;;;;1.85;1.27;;;;;;;;;;4977383;28;20520;-83
2024/03/10 10:46:16;;;;;;;2.65;1.20;;;;;;;;;;4963273;28;20074;-82
2024/03/10 10:48:45;;;;;;;1.63;1.40;;;;;;;;;;5001351;28;20046;-83
2024/03/10 10:51:17;;;;;;;3.53;1.48;;;;;;;;;;4967183;28;20448;-83
2024/03/10 10:53:44;;;;;;;2.67;1.20;;;;;;;;;;4977419;28;20047;-82
2024/03/10 10:56:14;;;;;;;1.90;1.35;;;;;;;;;;4964604;28;20314;-83
2024/03/10 10:58:43;;;;;;;2.05;1.30;;;;;;;;;;4965364;28;20047;-83
2024/03/10 11:01:10;;;;;;;1.52;1.40;;;;;;;;;;4964493;28;20053;-85
2024/03/10 11:03:37;;;;;;;1.60;1.00;;;;;;;;;;4982567;28;20125;-83
2024/03/10 11:06:08;;;;;;;2.50;1.40;;;;;;;;;;4964327;28;20059;-82
2024/03/10 11:08:36;;;;;;;2.70;1.38;;;;;;;;;;4980567;28;20053;-83
2024/03/10 11:11:03;;;;;;;3.83;1.50;;;;;;;;;;4994085;28;20054;-84
2024/03/10 11:13:30;;;;;;;1.75;1.55;;;;;;;;;;4976274;28;20054;-86
2024/03/10 11:16:09;;;;;;;3.67;1.50;;;;;;;;;;4970905;28;20055;-87
2024/03/10 11:18:39;;;;;;;2.35;1.13;;;;;;;;;;4975566;28;20448;-83
2024/03/10 11:21:06;;;;;;;3.42;1.25;;;;;;;;;;4994865;28;20178;-82
2024/03/10 11:23:37;;;;;;;1.73;1.02;;;;;;;;;;4985665;28;20054;-85
2024/03/10 11:26:15;;;;;;;1.23;1.08;;;;;;;;;;4969134;28;20185;-85
2024/03/10 11:28:55;;;;;;;2.58;1.33;;;;;;;;;;5006162;28;20109;-84
2024/03/10 11:31:22;;;;;;;1.30;1.17;;;;;;;;;;4996773;28;20049;-85
2024/03/10 11:33:49;;;;;;;1.85;1.40;;;;;;;;;;4981760;28;20102;-86
2024/03/10 11:36:16;;;;;;;1.67;1.23;;;;;;;;;;4960322;28;20474;-86
2024/03/10 11:38:43;;;;;;;3.47;1.50;;;;;;;;;;4971431;28;20086;-84
2024/03/10 11:41:10;;;;;;;1.63;1.27;;;;;;;;;;4977201;28;20074;-87
2024/03/10 11:43:38;;;;;;;1.88;1.50;;;;;;;;;;4972674;28;20059;-85
2024/03/10 11:46:17;;;;;;;3.95;1.77;;;;;;;;;;4967354;28;20116;-83
2024/03/10 11:48:44;;;;;;;1.75;1.63;;;;;;;;;;4995361;28;20046;-80
2024/03/10 11:51:12;;;;;;;2.88;1.60;;;;;;;;;;5005117;28;20047;-82
2024/03/10 11:53:40;;;;;;;2.58;1.40;;;;;;;;;;5002561;28;20050;-80
2024/03/10 11:56:07;;;;;;;1.52;1.30;;;;;;;;;;4983649;28;20066;-80
2024/03/10 11:58:34;;;;;;;2.20;1.50;;;;;;;;;;5016971;28;20085;-80
2024/03/10 12:01:05;;;;;;;2.70;1.27;;;;;;;;;;5006763;28;20081;-80
2024/03/10 12:03:38;;;;;;;7.22;1.83;;;;;;;;;;4989671;28;20117;-84
2024/03/10 12:06:05;;;;;;;1.88;1.30;;;;;;;;;;4959151;28;20089;-84
2024/03/10 12:08:37;;;;;;;1.88;1.20;;;;;;;;;;4969207;28;20145;-82
2024/03/10 12:11:05;;;;;;;1.30;1.17;;;;;;;;;;4974917;28;20046;-82
2024/03/10 12:13:32;;;;;;;1.67;1.35;;;;;;;;;;4973522;28;20103;-82
2024/03/10 12:16:01;;;;;;;3.30;1.38;;;;;;;;;;4990872;28;20050;-79
2024/03/10 12:18:30;;;;;;;2.20;1.75;;;;;;;;;;4965335;28;20086;-81
2024/03/10 12:20:57;;;;;;;1.70;1.35;;;;;;;;;;4985304;28;20105;-80
2024/03/10 12:23:26;;;;;;;2.45;1.40;;;;;;;;;;4979263;28;20055;-82
2024/03/10 12:25:53;;;;;;;1.42;1.25;;;;;;;;;;5001675;28;20050;-79
2024/03/10 12:28:21;;;;;;;3.25;1.10;;;;;;;;;;4990593;28;20070;-81
2024/03/10 12:30:49;;;;;;;2.28;1.20;;;;;;;;;;4985617;28;20067;-82
2024/03/10 12:33:16;;;;;;;2.03;1.40;;;;;;;;;;4979163;28;20043;-82
2024/03/10 12:35:42;;;;;;;2.72;1.40;;;;;;;;;;5001463;28;20055;-82
2024/03/10 12:38:09;;;;;;;1.95;1.30;;;;;;;;;;4985359;28;20046;-79
2024/03/10 12:40:36;;;;;;;1.50;1.10;;;;;;;;;;4968783;28;20039;-80
2024/03/10 12:43:03;;;;;;;2.95;1.45;;;;;;;;;;4984629;28;20081;-79
2024/03/10 12:45:29;;;;;;;2.03;1.35;;;;;;;;;;4960746;28;20103;-82
2024/03/10 12:47:56;;;;;;;4.43;1.10;;;;;;;;;;4993132;28;20071;-81
2024/03/10 12:50:26;;;;;;;2.13;1.48;;;;;;;;;;4976602;28;20051;-82
2024/03/10 12:52:53;;;;;;;2.47;1.55;;;;;;;;;;4978700;28;20073;-80
2024/03/10 12:55:20;;;;;;;2.40;1.55;;;;;;;;;;4983249;28;20046;-80
2024/03/10 12:57:47;;;;;;;3.28;1.70;;;;;;;;;;4987883;28;20054;-82
2024/03/10 13:00:23;;;;;;;1.70;1.27;;;;;;;;;;4985522;28;20043;-82
2024/03/10 13:02:55;;;;;;;2.53;1.73;;;;;;;;;;5005375;28;20050;-82
2024/03/10 13:05:22;;;;;;;2.33;1.40;;;;;;;;;;4998318;28;20067;-82
2024/03/10 13:07:49;;;;;;;1.52;1.38;;;;;;;;;;4970098;28;20085;-82
2024/03/10 13:10:15;;;;;;;1.50;1.38;;;;;;;;;;4988525;28;20074;-82
2024/03/10 13:12:42;;;;;;;2.85;1.73;;;;;;;;;;4987725;28;20055;-83
2024/03/10 13:15:10;;;;;;;1.55;1.20;;;;;;;;;;4984720;28;20061;-85
2024/03/10 13:17:40;;;;;;;1.63;1.38;;;;;;;;;;4975144;28;20066;-85
2024/03/10 13:20:16;;;;;;;1.90;1.60;;;;;;;;;;4980763;28;20093;-84
2024/03/10 13:22:44;;;;;;;2.03;1.42;;;;;;;;;;4981872;28;20085;-86
2024/03/10 13:25:11;;;;;;;3.10;1.55;;;;;;;;;;4961517;28;20058;-85
2024/03/10 13:27:38;;;;;;;1.95;1.30;;;;;;;;;;4983382;28;20063;-84
2024/03/10 13:30:05;;;;;;;1.67;1.15;;;;;;;;;;4982773;28;20556;-85
2024/03/10 13:32:32;;;;;;;2.50;1.40;;;;;;;;;;4967729;28;20047;-84
2024/03/10 13:35:00;;;;;;;2.17;1.60;;;;;;;;;;4978625;28;20130;-84
2024/03/10 13:37:28;;;;;;;5.18;1.77;;;;;;;;;;4982824;28;20055;-85
2024/03/10 13:39:55;;;;;;;1.95;1.58;;;;;;;;;;4983627;28;20066;-85
2024/03/10 13:42:23;;;;;;;3.22;1.60;;;;;;;;;;4983850;28;20074;-84
2024/03/10 13:44:52;;;;;;;2.20;1.50;;;;;;;;;;4983798;28;20121;-84
2024/03/10 13:47:19;;;;;;;2.28;1.60;;;;;;;;;;4967759;28;20054;-84
2024/03/10 13:49:47;;;;;;;3.03;2.38;;;;;;;;;;4984441;28;20070;-84
2024/03/10 13:52:15;;;;;;;3.47;2.22;;;;;;;;;;4985375;28;20065;-84
2024/03/10 13:54:46;;;;;;;3.50;2.35;;;;;;;;;;4982746;28;20051;-84
2024/03/10 13:57:12;;;;;;;3.88;2.20;;;;;;;;;;4986704;28;20478;-85
2024/03/10 13:59:43;;;;;;;4.35;2.78;;;;;;;;;;4986809;28;20058;-84
2024/03/10 14:02:10;;;;;;;4.95;3.60;;;;;;;;;;4985420;28;20134;-85
2024/03/10 14:04:37;;;;;;;3.95;2.67;;;;;;;;;;4984329;28;20142;-86
2024/03/10 14:07:05;;;;;;;3.38;2.80;;;;;;;;;;4984731;28;20050;-84
2024/03/10 14:09:32;;;;;;;5.88;3.05;;;;;;;;;;4984421;28;20047;-85
2024/03/10 14:11:59;;;;;;;5.43;3.15;;;;;;;;;;4985099;28;20110;-84
2024/03/10 14:14:28;;;;;;;3.80;3.13;;;;;;;;;;4988392;28;20078;-82
2024/03/10 14:16:57;;;;;;;3.50;2.85;;;;;;;;;;4979543;28;20109;-82
2024/03/10 14:19:24;;;;;;;6.55;3.22;;;;;;;;;;4984898;28;20086;-82
2024/03/10 14:21:50;;;;;;;4.50;2.42;;;;;;;;;;4984377;28;20061;-82
2024/03/10 14:24:17;;;;;;;3.33;2.17;;;;;;;;;;4981073;28;20082;-83
2024/03/10 14:26:43;;;;;;;4.35;2.63;;;;;;;;;;4963272;28;20057;-82
2024/03/10 14:29:10;;;;;;;3.92;2.88;;;;;;;;;;4977891;28;20050;-82
2024/03/10 14:31:37;;;;;;;3.55;2.60;;;;;;;;;;4976769;28;20063;-81
2024/03/10 14:34:04;;;;;;;3.28;2.42;;;;;;;;;;4964139;28;20084;-81
2024/03/10 14:36:34;;;;;;;3.65;2.78;;;;;;;;;;4993448;28;20046;-81
2024/03/10 14:39:01;;;;;;;6.90;4.82;;;;;;;;;;4971358;28;20472;-81
2024/03/10 14:41:28;;;;;;;4.47;3.13;;;;;;;;;;4962965;28;20058;-80
2024/03/10 14:43:55;;;;;;;6.35;3.70;;;;;;;;;;4979689;28;20078;-81
2024/03/10 14:46:21;;;;;;;4.53;3.35;;;;;;;;;;4977656;28;20417;-82
2024/03/10 14:48:48;;;;;;;3.72;2.70;;;;;;;;;;4982751;28;20493;-81
2024/03/10 14:51:15;;;;;;;3.55;2.92;;;;;;;;;;4987201;28;20043;-81
2024/03/10 14:53:42;;;;;;;5.50;3.42;;;;;;;;;;4978335;28;20240;-81
2024/03/10 14:56:08;;;;;;;3.55;2.60;;;;;;;;;;4976513;28;20058;-81
2024/03/10 14:58:36;;;;;;;4.70;3.35;;;;;;;;;;4966884;28;20077;-81
2024/03/10 15:01:03;;;;;;;3.75;3.00;;;;;;;;;;4985551;28;20066;-81
2024/03/10 15:03:47;;;;;;;5.53;3.45;;;;;;;;;;4983261;28;20063;-83
2024/03/10 15:06:15;;;;;;;5.43;3.72;;;;;;;;;;4982615;28;20043;-81
2024/03/10 15:08:42;;;;;;;5.25;3.83;;;;;;;;;;4965761;28;20051;-80
2024/03/10 15:11:09;;;;;;;5.63;3.80;;;;;;;;;;4965174;28;20050;-81